KSCK/SCK METAR and TAF weather

Enter ICAO airport designator
Station Type Date Time Source
KSCK METAR 2019/08/21 01:55 UTC NOAA

KSCK 210155Z 27014KT 10SM CLR 28/11 A2991 RMK AO2 SLP127 T02830106


Station Type Date Time Source
KSCK Decoded METAR 2019/08/21 01:55 UTC NOAA

Station name not available
Aug 20, 2019 - 09:55 PM EDT / 2019.08.21 0155 UTC
Wind: from the W (270 degrees) at 16 MPH (14 KT):0
Visibility: 10 mile(s):0
Sky conditions: clear
Temperature: 82.9 F (28.3 C)
Dew Point: 51.1 F (10.6 C)
Relative Humidity: 33%
Pressure (altimeter): 29.91 in. Hg (1012 hPa)
ob: KSCK 210155Z 27014KT 10SM CLR 28/11 A2991 RMK AO2 SLP127 T02830106
cycle: 2

Station Type Date Time Source
KSCK TAF 2019/08/20 18:40 UTC NOAA

TAF KSCK 201736Z 2018/2118 33008KT P6SM SKC
FM202200 29012G21KT P6SM SKC
FM210900 32004KT P6SM FEW250

Example: see airport list